sensor_id;sensor_type;location;lat;lon;timestamp;pressure;altitude;pressure_sealevel;temperature;humidity
46007;BME280;31738;50.188;8.524;2023-09-19T00:01:57;98131.84;;;19.11;89.68
46007;BME280;31738;50.188;8.524;2023-09-19T00:04:22;98132.28;;;19.13;89.79
46007;BME280;31738;50.188;8.524;2023-09-19T00:06:54;98135.25;;;19.08;90.11
46007;BME280;31738;50.188;8.524;2023-09-19T00:09:19;98136.38;;;19.07;89.93
46007;BME280;31738;50.188;8.524;2023-09-19T00:11:45;98138.75;;;19.08;89.96
46007;BME280;31738;50.188;8.524;2023-09-19T00:14:13;98143.41;;;19.08;90.17
46007;BME280;31738;50.188;8.524;2023-09-19T00:16:39;98146.47;;;19.06;89.86
46007;BME280;31738;50.188;8.524;2023-09-19T00:19:06;98138.66;;;19.05;90.16
46007;BME280;31738;50.188;8.524;2023-09-19T00:21:32;98142.16;;;19.05;90.40
46007;BME280;31738;50.188;8.524;2023-09-19T00:23:58;98140.69;;;19.08;90.32
46007;BME280;31738;50.188;8.524;2023-09-19T00:26:23;98143.84;;;19.10;90.16
46007;BME280;31738;50.188;8.524;2023-09-19T00:28:52;98147.00;;;19.12;90.19
46007;BME280;31738;50.188;8.524;2023-09-19T00:31:18;98147.25;;;19.07;90.21
46007;BME280;31738;50.188;8.524;2023-09-19T00:33:43;98141.81;;;19.07;90.57
46007;BME280;31738;50.188;8.524;2023-09-19T00:36:09;98149.53;;;19.05;90.83
46007;BME280;31738;50.188;8.524;2023-09-19T00:38:34;98147.69;;;19.09;90.46
46007;BME280;31738;50.188;8.524;2023-09-19T00:41:00;98154.72;;;19.10;90.57
46007;BME280;31738;50.188;8.524;2023-09-19T00:43:25;98148.38;;;19.06;90.55
46007;BME280;31738;50.188;8.524;2023-09-19T00:48:21;98141.72;;;19.03;90.66
46007;BME280;31738;50.188;8.524;2023-09-19T00:50:47;98150.22;;;19.02;91.36
46007;BME280;31738;50.188;8.524;2023-09-19T00:53:18;98151.09;;;19.06;90.71
46007;BME280;31738;50.188;8.524;2023-09-19T00:55:45;98142.50;;;19.04;91.00
46007;BME280;31738;50.188;8.524;2023-09-19T00:58:10;98146.34;;;19.03;90.94
46007;BME280;31738;50.188;8.524;2023-09-19T01:00:37;98146.81;;;19.05;90.86
46007;BME280;31738;50.188;8.524;2023-09-19T01:03:03;98152.69;;;19.07;90.98
46007;BME280;31738;50.188;8.524;2023-09-19T01:05:29;98155.41;;;19.07;91.01
46007;BME280;31738;50.188;8.524;2023-09-19T01:07:55;98161.63;;;19.07;91.33
46007;BME280;31738;50.188;8.524;2023-09-19T01:10:21;98164.00;;;19.09;91.06
46007;BME280;31738;50.188;8.524;2023-09-19T01:23:19;98186.78;;;19.04;91.17
46007;BME280;31738;50.188;8.524;2023-09-19T01:26:00;98194.59;;;19.06;90.98
46007;BME280;31738;50.188;8.524;2023-09-19T01:28:39;98190.97;;;19.02;91.08
46007;BME280;31738;50.188;8.524;2023-09-19T01:31:10;98190.53;;;19.00;91.31
46007;BME280;31738;50.188;8.524;2023-09-19T01:33:56;98199.13;;;19.02;90.97
46007;BME280;31738;50.188;8.524;2023-09-19T01:36:30;98196.63;;;18.97;91.30
46007;BME280;31738;50.188;8.524;2023-09-19T01:38:57;98200.50;;;18.96;91.25
46007;BME280;31738;50.188;8.524;2023-09-19T01:41:33;98209.81;;;18.95;91.32
46007;BME280;31738;50.188;8.524;2023-09-19T01:44:03;98206.97;;;18.91;91.58
46007;BME280;31738;50.188;8.524;2023-09-19T01:46:34;98203.44;;;18.91;91.49
46007;BME280;31738;50.188;8.524;2023-09-19T01:49:22;98214.31;;;18.91;91.39
46007;BME280;31738;50.188;8.524;2023-09-19T01:54:34;98218.19;;;18.90;91.75
46007;BME280;31738;50.188;8.524;2023-09-19T01:59:45;98224.03;;;18.92;91.35
46007;BME280;31738;50.188;8.524;2023-09-19T02:02:15;98223.63;;;18.90;91.64
46007;BME280;31738;50.188;8.524;2023-09-19T02:04:43;98215.00;;;18.88;91.61
46007;BME280;31738;50.188;8.524;2023-09-19T02:07:08;98230.16;;;18.89;91.41
46007;BME280;31738;50.188;8.524;2023-09-19T02:12:11;98236.53;;;18.81;91.48
46007;BME280;31738;50.188;8.524;2023-09-19T02:14:37;98227.91;;;18.79;91.71
46007;BME280;31738;50.188;8.524;2023-09-19T02:17:03;98230.28;;;18.80;91.63
46007;BME280;31738;50.188;8.524;2023-09-19T02:19:33;98242.63;;;18.78;91.62
46007;BME280;31738;50.188;8.524;2023-09-19T02:22:00;98251.22;;;18.80;91.74
46007;BME280;31738;50.188;8.524;2023-09-19T02:24:29;98249.66;;;18.79;91.64
46007;BME280;31738;50.188;8.524;2023-09-19T02:27:00;98243.06;;;18.80;91.41
46007;BME280;31738;50.188;8.524;2023-09-19T02:29:33;98247.94;;;18.74;91.60
46007;BME280;31738;50.188;8.524;2023-09-19T02:32:16;98256.44;;;18.73;91.68
46007;BME280;31738;50.188;8.524;2023-09-19T02:34:47;98250.44;;;18.67;91.32
46007;BME280;31738;50.188;8.524;2023-09-19T02:37:16;98248.38;;;18.64;91.56
46007;BME280;31738;50.188;8.524;2023-09-19T02:39:58;98256.75;;;18.59;91.42
46007;BME280;31738;50.188;8.524;2023-09-19T02:42:32;98251.88;;;18.52;91.42
46007;BME280;31738;50.188;8.524;2023-09-19T02:45:06;98248.81;;;18.54;91.38
46007;BME280;31738;50.188;8.524;2023-09-19T02:47:42;98256.41;;;18.48;91.50
46007;BME280;31738;50.188;8.524;2023-09-19T02:50:20;98250.84;;;18.45;91.23
46007;BME280;31738;50.188;8.524;2023-09-19T02:52:51;98253.41;;;18.41;90.91
46007;BME280;31738;50.188;8.524;2023-09-19T02:55:18;98251.38;;;18.38;91.18
46007;BME280;31738;50.188;8.524;2023-09-19T02:57:54;98250.09;;;18.36;90.70
46007;BME280;31738;50.188;8.524;2023-09-19T03:00:21;98251.13;;;18.31;90.98
46007;BME280;31738;50.188;8.524;2023-09-19T03:03:01;98254.94;;;18.30;90.79
46007;BME280;31738;50.188;8.524;2023-09-19T03:05:34;98253.22;;;18.26;91.21
46007;BME280;31738;50.188;8.524;2023-09-19T03:08:00;98250.84;;;18.24;91.18
46007;BME280;31738;50.188;8.524;2023-09-19T03:10:26;98263.97;;;18.22;90.90
46007;BME280;31738;50.188;8.524;2023-09-19T03:12:54;98265.44;;;18.20;90.85
46007;BME280;31738;50.188;8.524;2023-09-19T03:15:31;98263.72;;;18.15;90.92
46007;BME280;31738;50.188;8.524;2023-09-19T03:17:57;98267.56;;;18.14;90.72
46007;BME280;31738;50.188;8.524;2023-09-19T03:20:27;98273.00;;;18.14;91.09
46007;BME280;31738;50.188;8.524;2023-09-19T03:22:57;98270.94;;;18.11;90.87
46007;BME280;31738;50.188;8.524;2023-09-19T03:25:29;98273.19;;;18.09;91.09
46007;BME280;31738;50.188;8.524;2023-09-19T03:28:13;98275.56;;;18.11;90.83
46007;BME280;31738;50.188;8.524;2023-09-19T03:30:41;98278.97;;;18.08;90.84
46007;BME280;31738;50.188;8.524;2023-09-19T03:33:07;98281.34;;;18.09;90.84
46007;BME280;31738;50.188;8.524;2023-09-19T03:35:45;98286.75;;;18.09;90.57
46007;BME280;31738;50.188;8.524;2023-09-19T03:38:17;98278.81;;;18.04;90.40
46007;BME280;31738;50.188;8.524;2023-09-19T03:40:43;98282.00;;;18.06;90.90
46007;BME280;31738;50.188;8.524;2023-09-19T03:43:15;98284.72;;;18.06;90.97
46007;BME280;31738;50.188;8.524;2023-09-19T03:45:46;98290.81;;;18.03;90.74
46007;BME280;31738;50.188;8.524;2023-09-19T03:48:27;98288.75;;;18.00;90.82
46007;BME280;31738;50.188;8.524;2023-09-19T03:50:53;98282.88;;;17.98;90.92
46007;BME280;31738;50.188;8.524;2023-09-19T03:53:25;98286.38;;;17.99;90.90
46007;BME280;31738;50.188;8.524;2023-09-19T03:55:56;98285.56;;;17.98;91.18
46007;BME280;31738;50.188;8.524;2023-09-19T03:58:22;98284.00;;;17.97;90.86
46007;BME280;31738;50.188;8.524;2023-09-19T04:01:00;98284.47;;;17.99;90.95
46007;BME280;31738;50.188;8.524;2023-09-19T04:03:33;98282.09;;;17.98;91.17
46007;BME280;31738;50.188;8.524;2023-09-19T04:06:15;98286.72;;;17.97;91.33
46007;BME280;31738;50.188;8.524;2023-09-19T04:08:41;98284.00;;;17.97;90.80
46007;BME280;31738;50.188;8.524;2023-09-19T04:11:10;98287.97;;;18.00;91.30
46007;BME280;31738;50.188;8.524;2023-09-19T04:13:36;98287.19;;;17.99;91.29
46007;BME280;31738;50.188;8.524;2023-09-19T04:16:03;98294.53;;;17.99;91.14
46007;BME280;31738;50.188;8.524;2023-09-19T04:18:47;98298.72;;;17.96;91.11
46007;BME280;31738;50.188;8.524;2023-09-19T04:21:12;98306.03;;;17.96;90.71
46007;BME280;31738;50.188;8.524;2023-09-19T04:23:38;98304.81;;;17.93;91.03
46007;BME280;31738;50.188;8.524;2023-09-19T04:26:04;98312.47;;;17.91;90.61
46007;BME280;31738;50.188;8.524;2023-09-19T04:28:31;98305.91;;;17.92;90.53
46007;BME280;31738;50.188;8.524;2023-09-19T04:31:00;98297.66;;;17.89;90.22
46007;BME280;31738;50.188;8.524;2023-09-19T04:33:40;98307.41;;;17.81;90.72
46007;BME280;31738;50.188;8.524;2023-09-19T04:36:06;98311.94;;;17.77;90.42
46007;BME280;31738;50.188;8.524;2023-09-19T04:38:33;98325.03;;;17.75;90.52
46007;BME280;31738;50.188;8.524;2023-09-19T04:40:59;98320.25;;;17.72;90.76
46007;BME280;31738;50.188;8.524;2023-09-19T04:43:25;98322.97;;;17.72;90.64
46007;BME280;31738;50.188;8.524;2023-09-19T04:45:51;98329.53;;;17.71;90.18
46007;BME280;31738;50.188;8.524;2023-09-19T04:48:26;98326.47;;;17.73;90.65
46007;BME280;31738;50.188;8.524;2023-09-19T04:50:54;98326.34;;;17.69;90.44
46007;BME280;31738;50.188;8.524;2023-09-19T04:53:46;98335.78;;;17.63;90.42
46007;BME280;31738;50.188;8.524;2023-09-19T04:56:13;98334.69;;;17.64;90.65
46007;BME280;31738;50.188;8.524;2023-09-19T04:58:52;98336.94;;;17.62;90.23
46007;BME280;31738;50.188;8.524;2023-09-19T05:01:22;98329.91;;;17.61;90.32
46007;BME280;31738;50.188;8.524;2023-09-19T05:03:49;98339.97;;;17.61;90.64
46007;BME280;31738;50.188;8.524;2023-09-19T05:06:21;98343.00;;;17.59;90.43
46007;BME280;31738;50.188;8.524;2023-09-19T05:08:47;98334.41;;;17.57;90.34
46007;BME280;31738;50.188;8.524;2023-09-19T05:11:21;98342.06;;;17.55;90.55
46007;BME280;31738;50.188;8.524;2023-09-19T05:13:48;98346.56;;;17.51;90.24
46007;BME280;31738;50.188;8.524;2023-09-19T05:16:24;98342.59;;;17.49;90.20
46007;BME280;31738;50.188;8.524;2023-09-19T05:18:54;98346.28;;;17.44;90.29
46007;BME280;31738;50.188;8.524;2023-09-19T05:21:20;98343.88;;;17.43;90.14
46007;BME280;31738;50.188;8.524;2023-09-19T05:23:45;98349.94;;;17.40;90.33
46007;BME280;31738;50.188;8.524;2023-09-19T05:26:11;98354.09;;;17.37;90.11
46007;BME280;31738;50.188;8.524;2023-09-19T05:28:37;98353.66;;;17.35;90.43
46007;BME280;31738;50.188;8.524;2023-09-19T05:31:03;98362.88;;;17.34;90.42
46007;BME280;31738;50.188;8.524;2023-09-19T05:33:31;98369.44;;;17.33;90.04
46007;BME280;31738;50.188;8.524;2023-09-19T05:35:57;98378.38;;;17.34;90.05
46007;BME280;31738;50.188;8.524;2023-09-19T05:38:31;98372.78;;;17.30;90.13
46007;BME280;31738;50.188;8.524;2023-09-19T05:40:58;98370.41;;;17.29;89.91
46007;BME280;31738;50.188;8.524;2023-09-19T05:43:23;98372.31;;;17.28;90.13
46007;BME280;31738;50.188;8.524;2023-09-19T05:45:49;98378.88;;;17.27;90.16
46007;BME280;31738;50.188;8.524;2023-09-19T05:48:17;98366.41;;;17.26;90.48
46007;BME280;31738;50.188;8.524;2023-09-19T05:50:43;98379.97;;;17.26;90.12
46007;BME280;31738;50.188;8.524;2023-09-19T05:53:12;98385.72;;;17.25;90.36
46007;BME280;31738;50.188;8.524;2023-09-19T05:55:40;98386.03;;;17.23;90.41
46007;BME280;31738;50.188;8.524;2023-09-19T05:58:09;98383.34;;;17.23;90.28
46007;BME280;31738;50.188;8.524;2023-09-19T06:00:35;98387.34;;;17.26;90.35
46007;BME280;31738;50.188;8.524;2023-09-19T06:03:01;98391.28;;;17.28;90.45
46007;BME280;31738;50.188;8.524;2023-09-19T06:05:28;98383.66;;;17.30;90.19
46007;BME280;31738;50.188;8.524;2023-09-19T06:07:55;98390.00;;;17.34;90.76
46007;BME280;31738;50.188;8.524;2023-09-19T06:10:26;98379.16;;;17.34;90.66
46007;BME280;31738;50.188;8.524;2023-09-19T06:12:54;98394.63;;;17.34;90.56
46007;BME280;31738;50.188;8.524;2023-09-19T06:15:23;98398.59;;;17.36;90.21
46007;BME280;31738;50.188;8.524;2023-09-19T06:17:55;98400.19;;;17.37;90.47
46007;BME280;31738;50.188;8.524;2023-09-19T06:20:22;98397.47;;;17.37;90.17
46007;BME280;31738;50.188;8.524;2023-09-19T06:22:48;98410.38;;;17.40;90.47
46007;BME280;31738;50.188;8.524;2023-09-19T06:25:15;98416.78;;;17.44;90.12
46007;BME280;31738;50.188;8.524;2023-09-19T06:27:51;98411.03;;;17.46;90.44
46007;BME280;31738;50.188;8.524;2023-09-19T06:30:19;98409.72;;;17.43;90.48
46007;BME280;31738;50.188;8.524;2023-09-19T06:32:45;98418.38;;;17.45;90.09
46007;BME280;31738;50.188;8.524;2023-09-19T06:35:12;98423.16;;;17.48;90.14
46007;BME280;31738;50.188;8.524;2023-09-19T06:37:39;98422.03;;;17.49;90.55
46007;BME280;31738;50.188;8.524;2023-09-19T06:40:08;98424.88;;;17.53;90.10
46007;BME280;31738;50.188;8.524;2023-09-19T06:42:45;98429.66;;;17.56;90.13
46007;BME280;31738;50.188;8.524;2023-09-19T06:45:14;98433.66;;;17.58;90.13
46007;BME280;31738;50.188;8.524;2023-09-19T06:47:44;98430.94;;;17.58;90.41
46007;BME280;31738;50.188;8.524;2023-09-19T06:50:11;98443.53;;;17.63;90.35
46007;BME280;31738;50.188;8.524;2023-09-19T06:52:42;98437.44;;;17.66;90.25
46007;BME280;31738;50.188;8.524;2023-09-19T06:55:08;98451.13;;;17.69;89.87
46007;BME280;31738;50.188;8.524;2023-09-19T06:57:37;98460.06;;;17.70;89.77
46007;BME280;31738;50.188;8.524;2023-09-19T07:00:03;98460.88;;;17.70;89.98
46007;BME280;31738;50.188;8.524;2023-09-19T07:02:34;98461.34;;;17.72;90.31
46007;BME280;31738;50.188;8.524;2023-09-19T07:04:59;98475.38;;;17.74;89.40
46007;BME280;31738;50.188;8.524;2023-09-19T07:07:25;98465.97;;;17.72;89.79
46007;BME280;31738;50.188;8.524;2023-09-19T07:09:50;98477.59;;;17.72;89.25
46007;BME280;31738;50.188;8.524;2023-09-19T07:12:16;98490.84;;;17.74;89.38
46007;BME280;31738;50.188;8.524;2023-09-19T07:14:42;98492.13;;;17.76;89.33
46007;BME280;31738;50.188;8.524;2023-09-19T07:17:08;98484.91;;;17.80;88.97
46007;BME280;31738;50.188;8.524;2023-09-19T07:19:34;98498.97;;;17.82;89.27
46007;BME280;31738;50.188;8.524;2023-09-19T07:21:59;98495.13;;;17.83;89.21
46007;BME280;31738;50.188;8.524;2023-09-19T07:24:28;98501.50;;;17.87;89.16
46007;BME280;31738;50.188;8.524;2023-09-19T07:26:54;98500.06;;;17.90;88.69
46007;BME280;31738;50.188;8.524;2023-09-19T07:29:19;98509.00;;;17.90;88.74
46007;BME280;31738;50.188;8.524;2023-09-19T07:31:51;98507.22;;;17.94;88.61
46007;BME280;31738;50.188;8.524;2023-09-19T07:34:17;98513.13;;;17.96;88.66
46007;BME280;31738;50.188;8.524;2023-09-19T07:36:43;98522.03;;;17.97;88.78
46007;BME280;31738;50.188;8.524;2023-09-19T07:39:09;98528.75;;;17.99;88.64
46007;BME280;31738;50.188;8.524;2023-09-19T07:41:34;98531.25;;;18.04;88.04
46007;BME280;31738;50.188;8.524;2023-09-19T07:44:00;98537.31;;;18.10;88.17
46007;BME280;31738;50.188;8.524;2023-09-19T07:46:26;98531.25;;;18.13;87.75
46007;BME280;31738;50.188;8.524;2023-09-19T07:48:51;98532.03;;;18.13;87.52
46007;BME280;31738;50.188;8.524;2023-09-19T07:51:17;98541.28;;;18.12;87.75
46007;BME280;31738;50.188;8.524;2023-09-19T07:53:42;98542.91;;;18.13;87.30
46007;BME280;31738;50.188;8.524;2023-09-19T07:56:09;98552.63;;;18.14;87.39
46007;BME280;31738;50.188;8.524;2023-09-19T07:58:35;98553.56;;;18.18;86.93
46007;BME280;31738;50.188;8.524;2023-09-19T08:01:07;98550.19;;;18.21;86.54
46007;BME280;31738;50.188;8.524;2023-09-19T08:03:33;98563.31;;;18.19;86.56
46007;BME280;31738;50.188;8.524;2023-09-19T08:06:02;98556.09;;;18.23;86.49
46007;BME280;31738;50.188;8.524;2023-09-19T08:08:28;98560.88;;;18.26;86.19
46007;BME280;31738;50.188;8.524;2023-09-19T08:10:55;98559.72;;;18.27;86.09
46007;BME280;31738;50.188;8.524;2023-09-19T08:13:24;98563.41;;;18.31;86.34
46007;BME280;31738;50.188;8.524;2023-09-19T08:15:50;98567.03;;;18.35;85.49
46007;BME280;31738;50.188;8.524;2023-09-19T08:18:16;98568.63;;;18.36;85.25
46007;BME280;31738;50.188;8.524;2023-09-19T08:20:42;98571.09;;;18.38;85.48
46007;BME280;31738;50.188;8.524;2023-09-19T08:23:08;98590.34;;;18.36;84.95
46007;BME280;31738;50.188;8.524;2023-09-19T08:25:34;98591.16;;;18.37;84.95
46007;BME280;31738;50.188;8.524;2023-09-19T08:27:59;98589.09;;;18.42;84.99
46007;BME280;31738;50.188;8.524;2023-09-19T08:30:27;98588.44;;;18.45;84.71
46007;BME280;31738;50.188;8.524;2023-09-19T08:32:59;98600.25;;;18.49;84.25
46007;BME280;31738;50.188;8.524;2023-09-19T08:35:25;98601.72;;;18.47;84.09
46007;BME280;31738;50.188;8.524;2023-09-19T08:37:50;98606.16;;;18.51;83.81
46007;BME280;31738;50.188;8.524;2023-09-19T08:40:17;98606.91;;;18.60;83.76
46007;BME280;31738;50.188;8.524;2023-09-19T08:42:52;98606.97;;;18.73;83.08
46007;BME280;31738;50.188;8.524;2023-09-19T08:45:23;98610.78;;;18.80;82.77
46007;BME280;31738;50.188;8.524;2023-09-19T08:48:20;98611.66;;;18.93;82.68
46007;BME280;31738;50.188;8.524;2023-09-19T08:53:23;98612.84;;;19.04;82.23
46007;BME280;31738;50.188;8.524;2023-09-19T08:55:52;98616.63;;;19.11;81.42
46007;BME280;31738;50.188;8.524;2023-09-19T08:58:26;98622.47;;;19.22;80.94
46007;BME280;31738;50.188;8.524;2023-09-19T09:00:56;98637.63;;;19.31;80.47
46007;BME280;31738;50.188;8.524;2023-09-19T09:03:24;98629.38;;;19.40;80.17
46007;BME280;31738;50.188;8.524;2023-09-19T09:05:50;98640.53;;;19.47;79.44
46007;BME280;31738;50.188;8.524;2023-09-19T09:08:17;98645.75;;;19.52;78.80
46007;BME280;31738;50.188;8.524;2023-09-19T09:10:45;98654.19;;;19.59;78.34
46007;BME280;31738;50.188;8.524;2023-09-19T09:13:12;98662.13;;;19.64;77.19
46007;BME280;31738;50.188;8.524;2023-09-19T09:15:40;98660.56;;;19.63;76.69
46007;BME280;31738;50.188;8.524;2023-09-19T09:18:07;98666.00;;;19.63;75.84
46007;BME280;31738;50.188;8.524;2023-09-19T09:20:32;98665.84;;;19.59;76.28
46007;BME280;31738;50.188;8.524;2023-09-19T09:22:58;98662.03;;;19.60;75.59
46007;BME280;31738;50.188;8.524;2023-09-19T09:28:19;98686.06;;;19.58;74.38
46007;BME280;31738;50.188;8.524;2023-09-19T09:30:45;98686.72;;;19.55;74.22
46007;BME280;31738;50.188;8.524;2023-09-19T09:33:12;98689.44;;;19.55;73.16
46007;BME280;31738;50.188;8.524;2023-09-19T09:36:07;98704.25;;;19.66;72.75
46007;BME280;31738;50.188;8.524;2023-09-19T09:38:45;98704.78;;;19.60;72.54
46007;BME280;31738;50.188;8.524;2023-09-19T09:41:11;98716.97;;;19.54;72.91
46007;BME280;31738;50.188;8.524;2023-09-19T09:43:41;98707.69;;;19.55;72.85
46007;BME280;31738;50.188;8.524;2023-09-19T09:46:16;98715.72;;;19.51;72.66
46007;BME280;31738;50.188;8.524;2023-09-19T09:51:43;98722.94;;;19.47;72.65
46007;BME280;31738;50.188;8.524;2023-09-19T09:54:13;98721.69;;;19.45;72.71
46007;BME280;31738;50.188;8.524;2023-09-19T09:56:59;98721.28;;;19.55;71.90
46007;BME280;31738;50.188;8.524;2023-09-19T10:02:14;98733.84;;;19.68;71.78
46007;BME280;31738;50.188;8.524;2023-09-19T10:04:45;98728.00;;;19.78;71.63
46007;BME280;31738;50.188;8.524;2023-09-19T10:07:31;98725.66;;;19.88;71.49
46007;BME280;31738;50.188;8.524;2023-09-19T10:10:06;98721.38;;;19.99;70.37
46007;BME280;31738;50.188;8.524;2023-09-19T10:12:46;98730.59;;;20.07;69.13
46007;BME280;31738;50.188;8.524;2023-09-19T10:15:15;98727.53;;;20.08;69.56
46007;BME280;31738;50.188;8.524;2023-09-19T10:17:43;98737.25;;;20.18;68.47
46007;BME280;31738;50.188;8.524;2023-09-19T10:20:16;98730.25;;;20.29;69.14
46007;BME280;31738;50.188;8.524;2023-09-19T10:22:57;98740.97;;;20.34;68.24
46007;BME280;31738;50.188;8.524;2023-09-19T10:25:28;98739.94;;;20.39;67.37
46007;BME280;31738;50.188;8.524;2023-09-19T10:28:00;98738.81;;;20.40;67.12
46007;BME280;31738;50.188;8.524;2023-09-19T10:30:29;98748.34;;;20.46;66.14
46007;BME280;31738;50.188;8.524;2023-09-19T10:33:04;98750.31;;;20.57;66.57
46007;BME280;31738;50.188;8.524;2023-09-19T10:35:32;98748.84;;;20.60;65.94
46007;BME280;31738;50.188;8.524;2023-09-19T10:38:03;98756.69;;;20.61;65.08
46007;BME280;31738;50.188;8.524;2023-09-19T10:40:29;98774.75;;;20.66;64.61
46007;BME280;31738;50.188;8.524;2023-09-19T10:43:03;98766.44;;;20.74;63.40
46007;BME280;31738;50.188;8.524;2023-09-19T10:45:35;98766.13;;;20.76;63.10
46007;BME280;31738;50.188;8.524;2023-09-19T10:48:04;98782.81;;;20.74;62.57
46007;BME280;31738;50.188;8.524;2023-09-19T10:50:46;98781.47;;;20.80;61.92
46007;BME280;31738;50.188;8.524;2023-09-19T10:53:14;98789.63;;;20.68;62.69
46007;BME280;31738;50.188;8.524;2023-09-19T10:55:50;98792.59;;;20.63;62.37
46007;BME280;31738;50.188;8.524;2023-09-19T10:58:28;98779.53;;;20.69;63.37
46007;BME280;31738;50.188;8.524;2023-09-19T11:01:00;98796.56;;;20.78;62.45
46007;BME280;31738;50.188;8.524;2023-09-19T11:03:31;98776.38;;;20.91;61.42
46007;BME280;31738;50.188;8.524;2023-09-19T11:06:06;98788.56;;;21.05;60.68
46007;BME280;31738;50.188;8.524;2023-09-19T11:30:35;98797.88;;;21.76;55.67
46007;BME280;31738;50.188;8.524;2023-09-19T11:33:18;98801.16;;;21.82;55.01
46007;BME280;31738;50.188;8.524;2023-09-19T11:36:08;98796.72;;;21.65;54.41
46007;BME280;31738;50.188;8.524;2023-09-19T11:46:53;98810.84;;;21.55;54.48
46007;BME280;31738;50.188;8.524;2023-09-19T11:49:19;98803.09;;;21.69;54.75
46007;BME280;31738;50.188;8.524;2023-09-19T11:51:52;98819.13;;;21.83;53.98
46007;BME280;31738;50.188;8.524;2023-09-19T11:54:17;98815.59;;;21.94;53.67
46007;BME280;31738;50.188;8.524;2023-09-19T11:56:45;98823.75;;;22.07;53.51
46007;BME280;31738;50.188;8.524;2023-09-19T11:59:11;98828.75;;;22.17;52.67
46007;BME280;31738;50.188;8.524;2023-09-19T12:01:38;98832.91;;;22.26;52.70
46007;BME280;31738;50.188;8.524;2023-09-19T12:04:11;98831.16;;;22.34;52.33
46007;BME280;31738;50.188;8.524;2023-09-19T12:06:37;98844.13;;;22.37;51.69
46007;BME280;31738;50.188;8.524;2023-09-19T12:09:12;98836.50;;;22.42;52.10
46007;BME280;31738;50.188;8.524;2023-09-19T12:11:42;98845.16;;;22.44;52.19
46007;BME280;31738;50.188;8.524;2023-09-19T12:14:09;98834.13;;;22.41;52.98
46007;BME280;31738;50.188;8.524;2023-09-19T12:16:35;98837.59;;;22.26;53.09
46007;BME280;31738;50.188;8.524;2023-09-19T12:19:18;98842.66;;;22.12;52.73
46007;BME280;31738;50.188;8.524;2023-09-19T12:21:54;98843.13;;;21.89;52.83
46007;BME280;31738;50.188;8.524;2023-09-19T12:24:19;98830.75;;;21.80;52.48
46007;BME280;31738;50.188;8.524;2023-09-19T12:26:46;98832.34;;;21.81;51.96
46007;BME280;31738;50.188;8.524;2023-09-19T12:29:21;98835.09;;;21.81;51.92
46007;BME280;31738;50.188;8.524;2023-09-19T12:31:51;98829.97;;;21.79;52.48
46007;BME280;31738;50.188;8.524;2023-09-19T12:34:20;98824.59;;;21.83;52.97
46007;BME280;31738;50.188;8.524;2023-09-19T12:36:46;98826.75;;;21.89;51.70
46007;BME280;31738;50.188;8.524;2023-09-19T12:39:22;98831.19;;;21.94;51.56
46007;BME280;31738;50.188;8.524;2023-09-19T12:41:48;98834.25;;;21.92;50.91
46007;BME280;31738;50.188;8.524;2023-09-19T12:44:16;98834.25;;;21.92;50.71
46007;BME280;31738;50.188;8.524;2023-09-19T12:46:44;98822.09;;;21.90;50.40
46007;BME280;31738;50.188;8.524;2023-09-19T12:49:19;98820.81;;;21.87;50.43
46007;BME280;31738;50.188;8.524;2023-09-19T12:51:48;98823.56;;;21.87;51.00
46007;BME280;31738;50.188;8.524;2023-09-19T12:54:15;98826.28;;;21.87;50.79
46007;BME280;31738;50.188;8.524;2023-09-19T12:56:45;98814.94;;;21.85;51.12
46007;BME280;31738;50.188;8.524;2023-09-19T12:59:14;98811.06;;;21.86;50.85
46007;BME280;31738;50.188;8.524;2023-09-19T13:01:42;98809.47;;;21.85;51.22
46007;BME280;31738;50.188;8.524;2023-09-19T13:04:17;98823.56;;;21.87;50.95
46007;BME280;31738;50.188;8.524;2023-09-19T13:06:51;98821.28;;;21.89;50.89
46007;BME280;31738;50.188;8.524;2023-09-19T13:09:18;98813.22;;;21.93;50.40
46007;BME280;31738;50.188;8.524;2023-09-19T13:11:46;98824.25;;;21.97;50.19
46007;BME280;31738;50.188;8.524;2023-09-19T13:17:00;98826.53;;;21.94;49.53
46007;BME280;31738;50.188;8.524;2023-09-19T13:22:43;98820.75;;;21.84;49.70
46007;BME280;31738;50.188;8.524;2023-09-19T13:25:15;98818.34;;;21.82;50.75
46007;BME280;31738;50.188;8.524;2023-09-19T13:27:44;98823.13;;;21.85;50.01
46007;BME280;31738;50.188;8.524;2023-09-19T13:30:12;98820.59;;;21.92;49.19
46007;BME280;31738;50.188;8.524;2023-09-19T13:32:37;98825.38;;;21.95;49.87
46007;BME280;31738;50.188;8.524;2023-09-19T13:35:06;98818.78;;;21.97;49.63
46007;BME280;31738;50.188;8.524;2023-09-19T13:37:35;98829.59;;;21.93;49.20
46007;BME280;31738;50.188;8.524;2023-09-19T13:40:14;98826.41;;;21.91;49.06
46007;BME280;31738;50.188;8.524;2023-09-19T13:42:40;98815.28;;;21.84;49.93
46007;BME280;31738;50.188;8.524;2023-09-19T13:45:07;98826.91;;;21.81;49.51
46007;BME280;31738;50.188;8.524;2023-09-19T13:47:33;98821.31;;;21.77;50.20
46007;BME280;31738;50.188;8.524;2023-09-19T13:50:02;98814.28;;;21.76;50.21
46007;BME280;31738;50.188;8.524;2023-09-19T13:52:30;98817.00;;;21.76;49.41
46007;BME280;31738;50.188;8.524;2023-09-19T13:54:57;98813.59;;;21.79;49.70
46007;BME280;31738;50.188;8.524;2023-09-19T13:57:23;98808.91;;;21.80;49.89
46007;BME280;31738;50.188;8.524;2023-09-19T13:59:49;98807.44;;;21.82;50.14
46007;BME280;31738;50.188;8.524;2023-09-19T14:02:14;98801.28;;;21.85;49.72
46007;BME280;31738;50.188;8.524;2023-09-19T14:04:40;98803.66;;;21.87;49.41
46007;BME280;31738;50.188;8.524;2023-09-19T14:07:06;98799.66;;;21.84;49.70
46007;BME280;31738;50.188;8.524;2023-09-19T14:09:32;98795.25;;;21.80;49.38
46007;BME280;31738;50.188;8.524;2023-09-19T14:11:59;98801.06;;;21.78;49.39
46007;BME280;31738;50.188;8.524;2023-09-19T14:14:24;98796.03;;;21.80;49.45
46007;BME280;31738;50.188;8.524;2023-09-19T14:16:50;98787.03;;;21.80;50.15
46007;BME280;31738;50.188;8.524;2023-09-19T14:19:17;98787.03;;;21.80;50.07
46007;BME280;31738;50.188;8.524;2023-09-19T14:21:43;98789.34;;;21.78;50.11